sensor_id;sensor_type;location;lat;lon;timestamp;pressure;altitude;pressure_sealevel;temperature;humidity
75072;BME280;63651;55.728;38.022;2024-01-11T00:03:40;97682.50;;;12.31;33.68
75072;BME280;63651;55.728;38.022;2024-01-11T00:08:42;97650.06;;;12.24;33.61
75072;BME280;63651;55.728;38.022;2024-01-11T00:13:44;97652.59;;;12.36;33.85
75072;BME280;63651;55.728;38.022;2024-01-11T00:18:47;97630.00;;;12.35;33.99
75072;BME280;63651;55.728;38.022;2024-01-11T00:23:49;97603.59;;;12.36;33.70
75072;BME280;63651;55.728;38.022;2024-01-11T00:28:51;97579.63;;;12.38;33.78
75072;BME280;63651;55.728;38.022;2024-01-11T00:33:53;97559.78;;;12.42;34.33
75072;BME280;63651;55.728;38.022;2024-01-11T00:38:55;97526.28;;;12.42;33.99
75072;BME280;63651;55.728;38.022;2024-01-11T00:43:58;97518.13;;;12.42;33.90
75072;BME280;63651;55.728;38.022;2024-01-11T00:49:00;97490.59;;;12.33;33.80
75072;BME280;63651;55.728;38.022;2024-01-11T00:54:02;97490.34;;;12.45;34.02
75072;BME280;63651;55.728;38.022;2024-01-11T00:59:04;97471.00;;;12.41;33.89
75072;BME280;63651;55.728;38.022;2024-01-11T01:04:06;97455.22;;;12.38;34.41
75072;BME280;63651;55.728;38.022;2024-01-11T01:09:08;97441.09;;;12.52;33.96
75072;BME280;63651;55.728;38.022;2024-01-11T01:14:11;97421.19;;;12.51;34.30
75072;BME280;63651;55.728;38.022;2024-01-11T01:19:14;97408.13;;;12.53;33.72
75072;BME280;63651;55.728;38.022;2024-01-11T01:24:16;97376.00;;;12.50;33.75
75072;BME280;63651;55.728;38.022;2024-01-11T01:29:17;97370.00;;;12.53;33.69
75072;BME280;63651;55.728;38.022;2024-01-11T01:34:20;97357.75;;;12.56;33.88
75072;BME280;63651;55.728;38.022;2024-01-11T01:39:23;97333.53;;;12.59;33.91
75072;BME280;63651;55.728;38.022;2024-01-11T01:44:25;97319.63;;;12.56;33.63
75072;BME280;63651;55.728;38.022;2024-01-11T01:49:29;97306.28;;;12.59;34.44
75072;BME280;63651;55.728;38.022;2024-01-11T01:54:31;97292.38;;;12.61;33.55
75072;BME280;63651;55.728;38.022;2024-01-11T01:59:33;97269.25;;;12.58;34.01
75072;BME280;63651;55.728;38.022;2024-01-11T02:04:35;97247.47;;;12.58;34.14
75072;BME280;63651;55.728;38.022;2024-01-11T02:09:37;97239.00;;;12.60;33.38
75072;BME280;63651;55.728;38.022;2024-01-11T02:14:40;97202.00;;;12.54;33.36
75072;BME280;63651;55.728;38.022;2024-01-11T02:19:42;97207.41;;;12.64;33.65
75072;BME280;63651;55.728;38.022;2024-01-11T02:24:45;97197.06;;;12.66;33.11
75072;BME280;63651;55.728;38.022;2024-01-11T02:29:48;97182.91;;;12.64;33.52
75072;BME280;63651;55.728;38.022;2024-01-11T02:34:49;97171.72;;;12.65;33.60
75072;BME280;63651;55.728;38.022;2024-01-11T02:39:52;97151.28;;;12.68;33.56
75072;BME280;63651;55.728;38.022;2024-01-11T02:44:54;97136.56;;;12.74;33.65
75072;BME280;63651;55.728;38.022;2024-01-11T02:49:56;97126.50;;;12.69;33.47
75072;BME280;63651;55.728;38.022;2024-01-11T02:54:58;97115.06;;;12.72;33.62
75072;BME280;63651;55.728;38.022;2024-01-11T03:00:00;97098.72;;;12.72;33.49
75072;BME280;63651;55.728;38.022;2024-01-11T03:05:02;97066.88;;;12.63;33.51
75072;BME280;63651;55.728;38.022;2024-01-11T03:10:06;97069.28;;;12.74;33.28
75072;BME280;63651;55.728;38.022;2024-01-11T03:15:10;97062.75;;;12.75;33.58
75072;BME280;63651;55.728;38.022;2024-01-11T03:20:12;97055.66;;;12.74;33.58
75072;BME280;63651;55.728;38.022;2024-01-11T03:25:14;97044.47;;;12.76;33.52
75072;BME280;63651;55.728;38.022;2024-01-11T03:30:17;97038.19;;;12.80;33.34
75072;BME280;63651;55.728;38.022;2024-01-11T03:35:20;97024.56;;;12.80;33.38
75072;BME280;63651;55.728;38.022;2024-01-11T03:40:22;97004.94;;;12.83;33.50
75072;BME280;63651;55.728;38.022;2024-01-11T03:45:24;96995.66;;;12.85;33.78
75072;BME280;63651;55.728;38.022;2024-01-11T03:50:26;96981.75;;;12.86;33.49
75072;BME280;63651;55.728;38.022;2024-01-11T03:55:29;96973.31;;;12.88;33.56
75072;BME280;63651;55.728;38.022;2024-01-11T04:00:32;96971.19;;;12.79;33.43
75072;BME280;63651;55.728;38.022;2024-01-11T04:05:34;96965.94;;;12.88;32.95
75072;BME280;63651;55.728;38.022;2024-01-11T04:10:36;96959.41;;;12.89;33.55
75072;BME280;63651;55.728;38.022;2024-01-11T04:15:38;96956.59;;;12.99;33.63
75072;BME280;63651;55.728;38.022;2024-01-11T04:20:41;96942.72;;;12.96;33.34
75072;BME280;63651;55.728;38.022;2024-01-11T04:25:44;96942.97;;;12.99;33.82
75072;BME280;63651;55.728;38.022;2024-01-11T04:30:47;96926.66;;;12.94;33.72
75072;BME280;63651;55.728;38.022;2024-01-11T04:35:49;96923.91;;;12.99;33.82
75072;BME280;63651;55.728;38.022;2024-01-11T04:40:52;96928.81;;;13.02;33.63
75072;BME280;63651;55.728;38.022;2024-01-11T04:45:53;96914.31;;;13.07;34.11
75072;BME280;63651;55.728;38.022;2024-01-11T04:50:56;96913.47;;;13.11;33.50
75072;BME280;63651;55.728;38.022;2024-01-11T04:55:58;96942.34;;;13.12;33.72
75072;BME280;63651;55.728;38.022;2024-01-11T05:01:00;96902.22;;;13.23;33.78
75072;BME280;63651;55.728;38.022;2024-01-11T05:06:03;96890.75;;;14.17;33.44
75072;BME280;63651;55.728;38.022;2024-01-11T05:11:06;96879.78;;;13.55;33.95
75072;BME280;63651;55.728;38.022;2024-01-11T05:16:22;96879.03;;;13.50;33.35
75072;BME280;63651;55.728;38.022;2024-01-11T05:21:24;96857.38;;;13.34;33.99
75072;BME280;63651;55.728;38.022;2024-01-11T05:26:27;96859.78;;;13.41;32.90
75072;BME280;63651;55.728;38.022;2024-01-11T05:31:30;96858.91;;;13.45;33.10
75072;BME280;63651;55.728;38.022;2024-01-11T05:36:31;96855.13;;;13.41;33.20
75072;BME280;63651;55.728;38.022;2024-01-11T05:41:34;96851.88;;;13.39;33.31
75072;BME280;63651;55.728;38.022;2024-01-11T05:46:36;96846.13;;;13.41;33.11
75072;BME280;63651;55.728;38.022;2024-01-11T05:51:39;96846.13;;;13.41;33.40
75072;BME280;63651;55.728;38.022;2024-01-11T05:56:41;96825.94;;;13.42;32.84
75072;BME280;63651;55.728;38.022;2024-01-11T06:01:43;96824.84;;;13.43;33.00
75072;BME280;63651;55.728;38.022;2024-01-11T06:06:45;96832.44;;;13.46;32.75
75072;BME280;63651;55.728;38.022;2024-01-11T06:11:47;96814.97;;;13.47;33.25
75072;BME280;63651;55.728;38.022;2024-01-11T06:16:49;96820.66;;;13.51;33.25
75072;BME280;63651;55.728;38.022;2024-01-11T06:21:51;96815.72;;;13.53;32.61
75072;BME280;63651;55.728;38.022;2024-01-11T06:26:53;96806.72;;;13.52;32.87
75072;BME280;63651;55.728;38.022;2024-01-11T06:31:56;96815.44;;;13.54;32.27
75072;BME280;63651;55.728;38.022;2024-01-11T06:36:57;96805.84;;;13.57;32.68
75072;BME280;63651;55.728;38.022;2024-01-11T06:42:00;96797.09;;;13.60;33.22
75072;BME280;63651;55.728;38.022;2024-01-11T06:47:03;96791.56;;;13.65;33.19
75072;BME280;63651;55.728;38.022;2024-01-11T06:52:07;96783.38;;;13.65;32.93
75072;BME280;63651;55.728;38.022;2024-01-11T06:57:09;96778.44;;;13.67;32.75
75072;BME280;63651;55.728;38.022;2024-01-11T07:02:11;96766.28;;;13.78;32.86
75072;BME280;63651;55.728;38.022;2024-01-11T07:07:14;96776.31;;;13.83;32.22
75072;BME280;63651;55.728;38.022;2024-01-11T07:12:16;96761.13;;;13.76;32.66
75072;BME280;63651;55.728;38.022;2024-01-11T07:17:19;96757.38;;;13.91;32.22
75072;BME280;63651;55.728;38.022;2024-01-11T07:22:20;96766.59;;;13.95;32.43
75072;BME280;63651;55.728;38.022;2024-01-11T07:27:22;96761.66;;;13.97;32.82
75072;BME280;63651;55.728;38.022;2024-01-11T07:32:24;96761.13;;;13.95;32.24
75072;BME280;63651;55.728;38.022;2024-01-11T07:37:26;96747.28;;;13.92;32.76
75072;BME280;63651;55.728;38.022;2024-01-11T07:42:30;96738.13;;;14.01;31.95
75072;BME280;63651;55.728;38.022;2024-01-11T07:47:32;96730.00;;;13.96;32.93
75072;BME280;63651;55.728;38.022;2024-01-11T07:52:35;96735.59;;;14.05;32.02
75072;BME280;63651;55.728;38.022;2024-01-11T07:57:37;96715.81;;;14.13;32.21
75072;BME280;63651;55.728;38.022;2024-01-11T08:02:39;96710.75;;;14.06;32.07
75072;BME280;63651;55.728;38.022;2024-01-11T08:07:41;96705.28;;;14.06;32.05
75072;BME280;63651;55.728;38.022;2024-01-11T08:12:46;96691.69;;;14.20;31.68
75072;BME280;63651;55.728;38.022;2024-01-11T08:17:55;96686.63;;;14.27;31.62
75072;BME280;63651;55.728;38.022;2024-01-11T08:22:57;96675.69;;;14.14;32.24
75072;BME280;63651;55.728;38.022;2024-01-11T08:27:59;96685.72;;;14.18;31.37
75072;BME280;63651;55.728;38.022;2024-01-11T08:33:02;96677.81;;;14.17;31.79
75072;BME280;63651;55.728;38.022;2024-01-11T08:38:05;96674.50;;;14.20;32.13
75072;BME280;63651;55.728;38.022;2024-01-11T08:43:08;96665.19;;;14.21;32.00
75072;BME280;63651;55.728;38.022;2024-01-11T08:48:10;96651.53;;;14.21;32.01
75072;BME280;63651;55.728;38.022;2024-01-11T08:53:12;96638.69;;;14.21;32.03
75072;BME280;63651;55.728;38.022;2024-01-11T08:58:14;96700.03;;;14.10;31.88
75072;BME280;63651;55.728;38.022;2024-01-11T09:03:17;96705.06;;;14.03;31.85
75072;BME280;63651;55.728;38.022;2024-01-11T09:08:20;96715.47;;;14.01;31.65
75072;BME280;63651;55.728;38.022;2024-01-11T09:13:22;96722.84;;;14.00;32.02
75072;BME280;63651;55.728;38.022;2024-01-11T09:18:25;96726.53;;;13.91;31.47
75072;BME280;63651;55.728;38.022;2024-01-11T09:23:27;96728.91;;;13.97;31.55
75072;BME280;63651;55.728;38.022;2024-01-11T09:28:30;96746.81;;;14.03;31.03
75072;BME280;63651;55.728;38.022;2024-01-11T09:33:31;96759.56;;;14.08;31.27
75072;BME280;63651;55.728;38.022;2024-01-11T09:38:33;96772.41;;;14.07;31.30
75072;BME280;63651;55.728;38.022;2024-01-11T09:43:36;96793.94;;;14.09;31.21
75072;BME280;63651;55.728;38.022;2024-01-11T09:48:40;96808.84;;;14.17;30.66
75072;BME280;63651;55.728;38.022;2024-01-11T09:53:47;96828.25;;;14.15;31.47
75072;BME280;63651;55.728;38.022;2024-01-11T09:58:50;96833.41;;;14.17;30.27
75072;BME280;63651;55.728;38.022;2024-01-11T10:03:54;96832.16;;;14.09;31.04
75072;BME280;63651;55.728;38.022;2024-01-11T10:08:57;96840.94;;;14.06;31.04
75072;BME280;63651;55.728;38.022;2024-01-11T10:14:00;96857.84;;;14.08;30.95
75072;BME280;63651;55.728;38.022;2024-01-11T10:19:02;96846.84;;;14.13;30.39
75072;BME280;63651;55.728;38.022;2024-01-11T10:24:05;96868.16;;;14.11;30.48
75072;BME280;63651;55.728;38.022;2024-01-11T10:29:08;96887.81;;;14.13;30.45
75072;BME280;63651;55.728;38.022;2024-01-11T10:34:12;96896.88;;;14.08;30.86
75072;BME280;63651;55.728;38.022;2024-01-11T10:39:16;96908.31;;;14.10;30.50
75072;BME280;63651;55.728;38.022;2024-01-11T10:44:22;96897.81;;;13.99;29.54
75072;BME280;63651;55.728;38.022;2024-01-11T10:49:25;96919.13;;;13.97;29.44
75072;BME280;63651;55.728;38.022;2024-01-11T10:54:28;96937.59;;;14.05;30.57
75072;BME280;63651;55.728;38.022;2024-01-11T10:59:34;96959.19;;;14.01;29.76
75072;BME280;63651;55.728;38.022;2024-01-11T11:04:36;96972.53;;;14.03;29.58
75072;BME280;63651;55.728;38.022;2024-01-11T11:09:42;96985.09;;;14.04;29.78
75072;BME280;63651;55.728;38.022;2024-01-11T11:14:46;96973.75;;;13.92;29.46
75072;BME280;63651;55.728;38.022;2024-01-11T11:19:48;96998.91;;;13.89;29.36
75072;BME280;63651;55.728;38.022;2024-01-11T11:25:09;97026.78;;;13.86;28.70
75072;BME280;63651;55.728;38.022;2024-01-11T11:30:12;97035.59;;;13.77;29.13
75072;BME280;63651;55.728;38.022;2024-01-11T11:35:15;97068.91;;;13.74;28.71
75072;BME280;63651;55.728;38.022;2024-01-11T11:40:17;97067.84;;;13.70;28.74
75072;BME280;63651;55.728;38.022;2024-01-11T11:45:26;97085.69;;;13.58;28.32
75072;BME280;63651;55.728;38.022;2024-01-11T11:50:29;97105.03;;;13.61;28.71
75072;BME280;63651;55.728;38.022;2024-01-11T11:55:34;97119.59;;;13.47;28.52
75072;BME280;63651;55.728;38.022;2024-01-11T12:00:36;97146.31;;;13.44;27.79
75072;BME280;63651;55.728;38.022;2024-01-11T12:05:40;97152.94;;;13.33;27.89
75072;BME280;63651;55.728;38.022;2024-01-11T12:10:45;97181.31;;;13.32;28.38
75072;BME280;63651;55.728;38.022;2024-01-11T12:15:48;97179.72;;;13.26;27.89
75072;BME280;63651;55.728;38.022;2024-01-11T12:20:51;97206.97;;;13.26;27.64
75072;BME280;63651;55.728;38.022;2024-01-11T12:25:55;97208.06;;;13.25;28.34
75072;BME280;63651;55.728;38.022;2024-01-11T12:30:58;97234.22;;;13.26;28.37
75072;BME280;63651;55.728;38.022;2024-01-11T12:36:01;97226.06;;;13.21;27.65
75072;BME280;63651;55.728;38.022;2024-01-11T12:41:04;97235.06;;;13.22;27.73
75072;BME280;63651;55.728;38.022;2024-01-11T12:46:08;97231.25;;;13.12;27.71
75072;BME280;63651;55.728;38.022;2024-01-11T12:51:10;97237.84;;;13.01;27.25
75072;BME280;63651;55.728;38.022;2024-01-11T12:56:14;97233.75;;;12.94;27.22
75072;BME280;63651;55.728;38.022;2024-01-11T13:01:17;97246.03;;;12.81;27.14
75072;BME280;63651;55.728;38.022;2024-01-11T13:06:20;97268.09;;;12.95;27.92
75072;BME280;63651;55.728;38.022;2024-01-11T13:11:23;97276.56;;;12.78;27.43
75072;BME280;63651;55.728;38.022;2024-01-11T13:16:26;97281.47;;;12.76;27.45
75072;BME280;63651;55.728;38.022;2024-01-11T13:21:29;97281.22;;;12.62;27.39
75072;BME280;63651;55.728;38.022;2024-01-11T13:26:32;97314.44;;;12.79;28.27
75072;BME280;63651;55.728;38.022;2024-01-11T13:31:35;97305.16;;;12.80;28.37
75072;BME280;63651;55.728;38.022;2024-01-11T13:36:38;97297.81;;;12.71;27.83
75072;BME280;63651;55.728;38.022;2024-01-11T13:41:40;97321.50;;;12.80;27.82
75072;BME280;63651;55.728;38.022;2024-01-11T13:46:44;97323.16;;;12.81;27.69
75072;BME280;63651;55.728;38.022;2024-01-11T13:51:47;97325.34;;;12.69;27.83
75072;BME280;63651;55.728;38.022;2024-01-11T13:56:50;97323.72;;;12.68;28.31
75072;BME280;63651;55.728;38.022;2024-01-11T14:01:55;97333.50;;;12.74;28.14
75072;BME280;63651;55.728;38.022;2024-01-11T14:06:57;97331.06;;;12.73;28.36
75072;BME280;63651;55.728;38.022;2024-01-11T14:11:59;97339.50;;;12.71;28.15
75072;BME280;63651;55.728;38.022;2024-01-11T14:17:02;97335.69;;;12.72;29.05
75072;BME280;63651;55.728;38.022;2024-01-11T14:22:05;97337.88;;;12.65;28.47
75072;BME280;63651;55.728;38.022;2024-01-11T14:27:08;97349.31;;;12.57;27.93
75072;BME280;63651;55.728;38.022;2024-01-11T14:32:11;97358.56;;;12.61;28.11
75072;BME280;63651;55.728;38.022;2024-01-11T14:37:13;97349.59;;;12.66;28.50
75072;BME280;63651;55.728;38.022;2024-01-11T14:42:16;97330.53;;;12.50;28.52
75072;BME280;63651;55.728;38.022;2024-01-11T14:47:19;97350.66;;;12.60;28.33
75072;BME280;63651;55.728;38.022;2024-01-11T14:52:22;97355.31;;;12.54;28.47
75072;BME280;63651;55.728;38.022;2024-01-11T14:57:24;97365.09;;;12.60;28.20
75072;BME280;63651;55.728;38.022;2024-01-11T15:02:28;97361.84;;;12.53;27.98
75072;BME280;63651;55.728;38.022;2024-01-11T15:07:31;97368.09;;;12.54;28.33
75072;BME280;63651;55.728;38.022;2024-01-11T15:12:35;97375.19;;;12.55;28.37
75072;BME280;63651;55.728;38.022;2024-01-11T15:17:36;97384.16;;;12.55;28.14
75072;BME280;63651;55.728;38.022;2024-01-11T15:22:39;97379.00;;;12.54;29.27
75072;BME280;63651;55.728;38.022;2024-01-11T15:27:42;97383.06;;;12.46;28.10
75072;BME280;63651;55.728;38.022;2024-01-11T15:32:44;97400.78;;;12.48;28.29
75072;BME280;63651;55.728;38.022;2024-01-11T15:37:46;97404.31;;;12.44;27.94
75072;BME280;63651;55.728;38.022;2024-01-11T15:42:49;97410.28;;;12.41;27.89
75072;BME280;63651;55.728;38.022;2024-01-11T15:47:51;97406.75;;;12.30;27.53
75072;BME280;63651;55.728;38.022;2024-01-11T15:52:52;97416.25;;;12.28;27.77
75072;BME280;63651;55.728;38.022;2024-01-11T15:57:53;97418.72;;;12.29;28.07
75072;BME280;63651;55.728;38.022;2024-01-11T16:02:56;97422.78;;;12.27;28.12
75072;BME280;63651;55.728;38.022;2024-01-11T16:07:58;97430.69;;;12.28;27.84
75072;BME280;63651;55.728;38.022;2024-01-11T16:13:00;97442.09;;;12.20;27.83
75072;BME280;63651;55.728;38.022;2024-01-11T16:18:03;97453.81;;;12.21;27.49
75072;BME280;63651;55.728;38.022;2024-01-11T16:23:06;97451.88;;;12.16;27.62
75072;BME280;63651;55.728;38.022;2024-01-11T16:28:09;97470.38;;;12.14;27.89
75072;BME280;63651;55.728;38.022;2024-01-11T16:33:11;97464.97;;;12.19;28.13
75072;BME280;63651;55.728;38.022;2024-01-11T16:38:14;97470.94;;;12.16;27.77
75072;BME280;63651;55.728;38.022;2024-01-11T16:43:35;97485.63;;;12.15;28.12
75072;BME280;63651;55.728;38.022;2024-01-11T16:48:37;97492.72;;;12.16;27.75
75072;BME280;63651;55.728;38.022;2024-01-11T16:53:43;97480.97;;;12.05;27.63
75072;BME280;63651;55.728;38.022;2024-01-11T16:58:44;97499.72;;;12.02;27.50
75072;BME280;63651;55.728;38.022;2024-01-11T17:03:46;97478.78;;;12.02;27.77
75072;BME280;63651;55.728;38.022;2024-01-11T17:08:48;97515.22;;;12.01;27.82
75072;BME280;63651;55.728;38.022;2024-01-11T17:13:51;97516.03;;;12.02;27.37
75072;BME280;63651;55.728;38.022;2024-01-11T17:18:54;97517.94;;;12.01;27.73
75072;BME280;63651;55.728;38.022;2024-01-11T17:23:56;97516.31;;;12.00;27.50
75072;BME280;63651;55.728;38.022;2024-01-11T17:28:58;97519.56;;;11.97;27.69
75072;BME280;63651;55.728;38.022;2024-01-11T17:34:01;97550.56;;;11.96;27.72
75072;BME280;63651;55.728;38.022;2024-01-11T17:39:04;97566.34;;;11.94;27.88
75072;BME280;63651;55.728;38.022;2024-01-11T17:44:05;97612.31;;;11.96;27.88
75072;BME280;63651;55.728;38.022;2024-01-11T17:49:07;97615.59;;;11.98;28.12
75072;BME280;63651;55.728;38.022;2024-01-11T17:54:09;97620.00;;;12.04;27.76
75072;BME280;63651;55.728;38.022;2024-01-11T17:59:11;97632.78;;;12.03;28.30
75072;BME280;63651;55.728;38.022;2024-01-11T18:04:13;97642.59;;;12.04;27.34
75072;BME280;63651;55.728;38.022;2024-01-11T18:09:15;97643.41;;;12.05;27.47
75072;BME280;63651;55.728;38.022;2024-01-11T18:14:20;97664.13;;;12.11;28.07
75072;BME280;63651;55.728;38.022;2024-01-11T18:19:22;97661.63;;;12.04;27.79
75072;BME280;63651;55.728;38.022;2024-01-11T18:24:24;97686.94;;;12.05;27.76
75072;BME280;63651;55.728;38.022;2024-01-11T18:29:26;97687.16;;;11.98;26.97
75072;BME280;63651;55.728;38.022;2024-01-11T18:34:27;97707.88;;;11.99;27.43
75072;BME280;63651;55.728;38.022;2024-01-11T18:39:30;97698.09;;;12.03;27.88
75072;BME280;63651;55.728;38.022;2024-01-11T18:44:35;97738.88;;;11.98;27.69
75072;BME280;63651;55.728;38.022;2024-01-11T18:49:38;97733.38;;;11.93;27.14
75072;BME280;63651;55.728;38.022;2024-01-11T18:54:40;97733.91;;;11.90;26.88
75072;BME280;63651;55.728;38.022;2024-01-11T18:59:41;97745.31;;;11.87;26.83
75072;BME280;63651;55.728;38.022;2024-01-11T19:04:43;97744.00;;;11.95;26.48
75072;BME280;63651;55.728;38.022;2024-01-11T19:09:46;97764.56;;;11.80;26.28
75072;BME280;63651;55.728;38.022;2024-01-11T19:14:48;97753.34;;;11.77;26.62
75072;BME280;63651;55.728;38.022;2024-01-11T19:19:50;97767.19;;;11.75;26.32
75072;BME280;63651;55.728;38.022;2024-01-11T19:24:52;97783.13;;;11.89;26.47
75072;BME280;63651;55.728;38.022;2024-01-11T19:29:53;97788.84;;;11.87;26.94
75072;BME280;63651;55.728;38.022;2024-01-11T19:34:56;97806.81;;;11.88;26.78
75072;BME280;63651;55.728;38.022;2024-01-11T19:39:58;97789.59;;;11.82;27.07
75072;BME280;63651;55.728;38.022;2024-01-11T19:45:01;97796.28;;;11.75;26.45
75072;BME280;63651;55.728;38.022;2024-01-11T19:50:04;97808.75;;;11.71;26.79
75072;BME280;63651;55.728;38.022;2024-01-11T19:55:08;97807.69;;;11.72;27.15
75072;BME280;63651;55.728;38.022;2024-01-11T20:00:12;97799.94;;;11.64;26.91
75072;BME280;63651;55.728;38.022;2024-01-11T20:05:15;97816.78;;;11.61;27.24
75072;BME280;63651;55.728;38.022;2024-01-11T20:10:18;97821.03;;;11.51;27.26
75072;BME280;63651;55.728;38.022;2024-01-11T20:15:21;97828.56;;;11.44;27.03
75072;BME280;63651;55.728;38.022;2024-01-11T20:20:24;97830.69;;;11.42;27.22
75072;BME280;63651;55.728;38.022;2024-01-11T20:25:26;97833.72;;;11.46;27.09
75072;BME280;63651;55.728;38.022;2024-01-11T20:30:28;97836.13;;;11.42;27.67
75072;BME280;63651;55.728;38.022;2024-01-11T20:35:29;97850.31;;;11.44;27.16
75072;BME280;63651;55.728;38.022;2024-01-11T20:40:32;97856.06;;;11.48;27.42
75072;BME280;63651;55.728;38.022;2024-01-11T20:45:34;97864.22;;;11.48;27.15
75072;BME280;63651;55.728;38.022;2024-01-11T20:50:38;97880.84;;;11.51;27.35
75072;BME280;63651;55.728;38.022;2024-01-11T20:55:39;97881.84;;;11.45;27.15
75072;BME280;63651;55.728;38.022;2024-01-11T21:00:42;97872.88;;;11.45;27.71
75072;BME280;63651;55.728;38.022;2024-01-11T21:05:44;97872.94;;;11.50;26.48
75072;BME280;63651;55.728;38.022;2024-01-11T21:10:49;97863.75;;;11.34;26.50
75072;BME280;63651;55.728;38.022;2024-01-11T21:15:51;97868.94;;;11.36;26.29
75072;BME280;63651;55.728;38.022;2024-01-11T21:20:54;97875.81;;;11.21;25.20
75072;BME280;63651;55.728;38.022;2024-01-11T21:26:00;97900.13;;;11.11;25.84
75072;BME280;63651;55.728;38.022;2024-01-11T21:31:02;97909.59;;;11.09;25.73
75072;BME280;63651;55.728;38.022;2024-01-11T21:36:06;97921.88;;;11.11;25.90
75072;BME280;63651;55.728;38.022;2024-01-11T21:41:09;97908.59;;;11.15;26.18
75072;BME280;63651;55.728;38.022;2024-01-11T21:46:11;97930.53;;;11.08;26.09
75072;BME280;63651;55.728;38.022;2024-01-11T21:51:14;97938.03;;;11.01;25.43
75072;BME280;63651;55.728;38.022;2024-01-11T21:56:17;97935.56;;;11.00;25.86
75072;BME280;63651;55.728;38.022;2024-01-11T22:01:20;97952.91;;;10.99;25.59
75072;BME280;63651;55.728;38.022;2024-01-11T22:06:22;97955.22;;;10.90;25.95
75072;BME280;63651;55.728;38.022;2024-01-11T22:11:26;97944.84;;;10.87;26.28
75072;BME280;63651;55.728;38.022;2024-01-11T22:16:31;97968.06;;;10.95;26.06
75072;BME280;63651;55.728;38.022;2024-01-11T22:21:38;97980.41;;;10.85;25.15
75072;BME280;63651;55.728;38.022;2024-01-11T22:26:40;97991.94;;;10.76;25.66
75072;BME280;63651;55.728;38.022;2024-01-11T22:31:43;98012.00;;;10.75;25.88
75072;BME280;63651;55.728;38.022;2024-01-11T22:36:46;98026.41;;;10.75;25.38
75072;BME280;63651;55.728;38.022;2024-01-11T22:41:49;98032.91;;;10.74;24.75
75072;BME280;63651;55.728;38.022;2024-01-11T22:46:51;98033.94;;;10.56;24.33
75072;BME280;63651;55.728;38.022;2024-01-11T22:51:53;98055.16;;;10.60;24.72
75072;BME280;63651;55.728;38.022;2024-01-11T22:56:56;98059.69;;;10.54;24.74
75072;BME280;63651;55.728;38.022;2024-01-11T23:01:59;98075.72;;;10.55;24.97
75072;BME280;63651;55.728;38.022;2024-01-11T23:07:05;98096.38;;;10.56;25.71
75072;BME280;63651;55.728;38.022;2024-01-11T23:12:09;98106.19;;;10.57;25.40
75072;BME280;63651;55.728;38.022;2024-01-11T23:17:11;98102.16;;;10.60;25.80
75072;BME280;63651;55.728;38.022;2024-01-11T23:22:14;98103.81;;;10.61;25.36
75072;BME280;63651;55.728;38.022;2024-01-11T23:27:17;98123.03;;;10.60;25.53
75072;BME280;63651;55.728;38.022;2024-01-11T23:32:20;98112.81;;;10.50;25.28
75072;BME280;63651;55.728;38.022;2024-01-11T23:37:21;98112.13;;;10.31;25.16
75072;BME280;63651;55.728;38.022;2024-01-11T23:42:24;98146.34;;;10.44;25.33
75072;BME280;63651;55.728;38.022;2024-01-11T23:47:26;98154.13;;;10.40;24.82
75072;BME280;63651;55.728;38.022;2024-01-11T23:52:28;98152.44;;;10.39;24.90
75072;BME280;63651;55.728;38.022;2024-01-11T23:57:31;98166.63;;;10.30;24.88
